createdAt,value
2023-04-15T00:01:53.728Z,6.40
2023-04-15T00:04:21.006Z,6.40
2023-04-15T00:06:55.347Z,6.40
2023-04-15T00:09:22.418Z,6.40
2023-04-15T00:11:51.341Z,6.40
2023-04-15T00:14:18.440Z,6.40
2023-04-15T00:16:45.485Z,6.40
2023-04-15T00:19:13.244Z,6.30
2023-04-15T00:21:40.273Z,6.30
2023-04-15T00:24:07.239Z,6.30
2023-04-15T00:26:34.281Z,6.20
2023-04-15T00:29:01.603Z,6.20
2023-04-15T00:31:28.893Z,6.20
2023-04-15T00:33:55.957Z,6.20
2023-04-15T00:36:23.510Z,6.20
2023-04-15T00:38:50.930Z,6.20
2023-04-15T00:41:19.412Z,6.00
2023-04-15T00:43:46.469Z,5.90
2023-04-15T00:46:16.129Z,5.70
2023-04-15T00:48:44.266Z,5.60
2023-04-15T00:51:11.351Z,5.40
2023-04-15T00:53:38.404Z,5.30
2023-04-15T00:56:06.691Z,5.40
2023-04-15T00:58:33.766Z,5.40
2023-04-15T01:01:01.108Z,5.40
2023-04-15T01:03:30.285Z,5.40
2023-04-15T01:06:01.571Z,5.40
2023-04-15T01:08:31.264Z,5.30
2023-04-15T01:11:02.324Z,5.40
2023-04-15T01:13:30.386Z,5.30
2023-04-15T01:15:58.107Z,5.40
2023-04-15T01:18:25.443Z,5.50
2023-04-15T01:20:52.390Z,5.50
2023-04-15T01:23:19.954Z,5.60
2023-04-15T01:25:47.657Z,5.60
2023-04-15T01:28:14.922Z,5.70
2023-04-15T01:30:42.343Z,5.70
2023-04-15T01:33:09.388Z,5.60
2023-04-15T01:35:36.528Z,5.60
2023-04-15T01:38:09.424Z,5.50
2023-04-15T01:40:37.963Z,5.50
2023-04-15T01:43:05.024Z,5.50
2023-04-15T01:45:34.181Z,5.40
2023-04-15T01:48:04.423Z,5.40
2023-04-15T01:50:31.629Z,5.40
2023-04-15T01:52:58.712Z,5.40
2023-04-15T01:55:26.314Z,5.30
2023-04-15T01:57:53.292Z,5.30
2023-04-15T02:00:22.441Z,5.30
2023-04-15T02:02:49.708Z,5.30
2023-04-15T02:05:16.800Z,5.40
2023-04-15T02:07:48.549Z,5.40
2023-04-15T02:10:16.877Z,5.40
2023-04-15T02:12:44.155Z,5.50
2023-04-15T02:15:11.745Z,5.60
2023-04-15T02:17:38.866Z,5.60
2023-04-15T02:20:06.540Z,5.70
2023-04-15T02:22:33.537Z,5.80
2023-04-15T02:25:00.612Z,5.80
2023-04-15T02:27:29.024Z,5.90
2023-04-15T02:29:56.028Z,5.80
2023-04-15T02:32:24.584Z,5.90
2023-04-15T02:34:51.897Z,5.90
2023-04-15T02:37:20.541Z,5.80
2023-04-15T02:39:47.920Z,5.80
2023-04-15T02:42:15.879Z,5.80
2023-04-15T02:44:43.728Z,5.80
2023-04-15T02:47:11.793Z,5.90
2023-04-15T02:49:41.976Z,5.80
2023-04-15T02:52:10.167Z,5.80
2023-04-15T02:54:37.393Z,5.80
2023-04-15T02:57:06.879Z,5.80
2023-04-15T02:59:34.056Z,5.80
2023-04-15T03:02:01.258Z,5.80
2023-04-15T03:04:30.291Z,5.80
2023-04-15T03:06:57.595Z,5.80
2023-04-15T03:09:25.371Z,5.90
2023-04-15T03:11:54.847Z,5.90
2023-04-15T03:14:22.537Z,5.90
2023-04-15T03:16:50.722Z,6.00
2023-04-15T03:19:18.354Z,6.00
2023-04-15T03:21:45.385Z,6.00
2023-04-15T03:24:12.718Z,6.00
2023-04-15T03:26:39.849Z,6.00
2023-04-15T03:29:12.305Z,6.00
2023-04-15T03:31:40.620Z,6.00
2023-04-15T03:34:07.660Z,6.00
2023-04-15T03:36:35.073Z,6.00
2023-04-15T03:39:04.728Z,5.90
2023-04-15T03:41:32.962Z,5.90
2023-04-15T03:44:00.114Z,5.90
2023-04-15T03:46:27.258Z,5.90
2023-04-15T03:48:54.239Z,5.80
2023-04-15T03:51:21.545Z,5.80
2023-04-15T03:53:48.520Z,5.80
2023-04-15T03:56:15.988Z,5.80
2023-04-15T03:58:43.054Z,5.80
2023-04-15T04:01:10.367Z,5.80
2023-04-15T04:03:38.042Z,5.90
2023-04-15T04:06:05.248Z,5.90
2023-04-15T04:08:32.374Z,5.80
2023-04-15T04:10:59.417Z,5.80
2023-04-15T04:13:26.551Z,5.80
2023-04-15T04:15:53.603Z,5.80
2023-04-15T04:18:20.777Z,5.80
2023-04-15T04:20:48.206Z,5.80
2023-04-15T04:23:15.205Z,5.80
2023-04-15T04:25:42.545Z,5.80
2023-04-15T04:28:09.654Z,5.90
2023-04-15T04:30:36.720Z,5.90
2023-04-15T04:33:03.939Z,5.80
2023-04-15T04:35:30.976Z,5.80
2023-04-15T04:38:02.049Z,5.80
2023-04-15T04:40:29.039Z,5.80
2023-04-15T04:42:56.109Z,5.80
2023-04-15T04:45:23.716Z,5.70
2023-04-15T04:47:50.829Z,5.70
2023-04-15T04:50:17.810Z,5.70
2023-04-15T04:52:44.853Z,5.70
2023-04-15T04:55:11.913Z,5.70
2023-04-15T04:57:39.809Z,5.70
2023-04-15T05:00:09.047Z,5.70
2023-04-15T05:02:36.252Z,5.70
2023-04-15T05:05:03.369Z,5.80
2023-04-15T05:07:30.630Z,5.80
2023-04-15T05:09:57.596Z,5.90
2023-04-15T05:12:29.254Z,5.90
2023-04-15T05:14:56.352Z,5.90
2023-04-15T05:17:23.394Z,6.00
2023-04-15T05:19:50.583Z,6.10
2023-04-15T05:22:17.544Z,6.10
2023-04-15T05:24:44.553Z,6.10
2023-04-15T05:27:11.929Z,6.20
2023-04-15T05:29:39.008Z,6.30
2023-04-15T05:32:06.718Z,6.30
2023-04-15T05:34:33.758Z,6.50
2023-04-15T05:37:00.852Z,6.50
2023-04-15T05:39:28.012Z,6.60
2023-04-15T05:41:54.974Z,6.60
2023-04-15T05:44:22.021Z,6.60
2023-04-15T05:46:48.958Z,6.70
2023-04-15T05:49:15.945Z,6.80
2023-04-15T05:51:42.893Z,6.90
2023-04-15T05:54:09.887Z,6.90
2023-04-15T05:56:37.113Z,6.80
2023-04-15T05:59:04.126Z,6.70
2023-04-15T06:01:31.326Z,6.60
2023-04-15T06:03:58.390Z,6.60
2023-04-15T06:06:25.433Z,6.50
2023-04-15T06:08:52.508Z,6.30
2023-04-15T06:11:22.171Z,6.30
2023-04-15T06:13:49.153Z,6.30
2023-04-15T06:16:16.183Z,6.20
2023-04-15T06:18:43.306Z,6.30
2023-04-15T06:21:10.676Z,6.30
2023-04-15T06:23:37.807Z,6.30
2023-04-15T06:26:04.873Z,6.20
2023-04-15T06:28:33.006Z,6.20
2023-04-15T06:31:01.572Z,6.20
2023-04-15T06:33:28.798Z,6.20
2023-04-15T06:35:55.743Z,6.20
2023-04-15T06:38:22.799Z,6.20
2023-04-15T06:40:49.830Z,6.30
2023-04-15T06:43:16.809Z,6.40
2023-04-15T06:45:44.894Z,6.40
2023-04-15T06:48:12.286Z,6.40
2023-04-15T06:50:39.374Z,6.50
2023-04-15T06:53:06.733Z,6.70
2023-04-15T06:55:34.490Z,6.80
2023-04-15T06:58:01.556Z,6.90
2023-04-15T07:00:28.915Z,7.10
2023-04-15T07:02:56.650Z,7.10
2023-04-15T07:05:25.480Z,7.30
2023-04-15T07:07:53.334Z,7.40
2023-04-15T07:10:20.614Z,7.60
2023-04-15T07:12:49.301Z,7.70
2023-04-15T07:15:16.651Z,7.90
2023-04-15T07:17:43.650Z,7.90
2023-04-15T07:20:13.108Z,8.00
2023-04-15T07:22:41.081Z,8.10
2023-04-15T07:25:09.054Z,8.10
2023-04-15T07:27:36.406Z,8.20
2023-04-15T07:30:03.667Z,8.20
2023-04-15T07:32:31.689Z,8.30
2023-04-15T07:35:03.851Z,8.30
2023-04-15T07:37:34.613Z,8.40
2023-04-15T07:40:01.998Z,8.50
2023-04-15T07:42:29.467Z,8.50
2023-04-15T07:44:58.109Z,8.50
2023-04-15T07:47:25.966Z,8.50
2023-04-15T07:49:53.342Z,8.60
2023-04-15T07:52:20.394Z,8.70
2023-04-15T07:54:47.422Z,8.80
2023-04-15T07:57:14.476Z,8.80
2023-04-15T07:59:42.099Z,8.80
2023-04-15T08:02:09.952Z,8.90
2023-04-15T08:04:37.601Z,8.90
2023-04-15T08:07:05.178Z,8.90
2023-04-15T08:09:32.159Z,9.00
2023-04-15T08:11:59.162Z,9.00
2023-04-15T08:14:26.384Z,9.20
2023-04-15T08:16:53.526Z,9.20
2023-04-15T08:19:20.763Z,9.30
2023-04-15T08:21:47.777Z,9.30
2023-04-15T08:24:15.751Z,9.30
2023-04-15T08:26:42.837Z,9.30
2023-04-15T08:29:09.877Z,9.30
2023-04-15T08:31:36.881Z,9.00
2023-04-15T08:34:03.951Z,9.00
2023-04-15T08:36:32.619Z,8.90
2023-04-15T08:39:02.328Z,8.90
2023-04-15T08:41:40.048Z,8.90
2023-04-15T08:44:07.638Z,8.90
2023-04-15T08:46:35.089Z,8.90
2023-04-15T08:49:05.294Z,9.10
2023-04-15T08:51:34.035Z,9.20
2023-04-15T08:54:03.872Z,9.40
2023-04-15T08:56:33.274Z,9.50
2023-04-15T08:59:02.267Z,9.50
2023-04-15T09:01:29.797Z,9.50
2023-04-15T09:03:57.682Z,9.50
2023-04-15T09:06:25.732Z,9.50
2023-04-15T09:08:54.911Z,9.60
2023-04-15T09:11:22.650Z,9.60
2023-04-15T09:13:49.895Z,9.80
2023-04-15T09:16:17.197Z,10.00
2023-04-15T09:18:44.394Z,10.00
2023-04-15T09:21:17.920Z,9.90
2023-04-15T09:24:01.990Z,9.90
2023-04-15T09:26:37.925Z,9.90
2023-04-15T09:29:09.842Z,9.70
2023-04-15T09:31:37.857Z,9.60
2023-04-15T09:34:05.927Z,9.70
2023-04-15T09:36:50.965Z,9.70
2023-04-15T09:39:18.281Z,9.70
2023-04-15T09:41:45.572Z,9.60
2023-04-15T09:44:26.128Z,9.50
2023-04-15T09:46:53.188Z,9.50
2023-04-15T09:49:21.387Z,9.60
2023-04-15T09:52:03.932Z,9.70
2023-04-15T09:54:38.934Z,9.70
2023-04-15T09:57:07.565Z,9.70
2023-04-15T09:59:34.616Z,9.70
2023-04-15T10:02:04.823Z,9.80
2023-04-15T10:04:36.607Z,10.00
2023-04-15T10:07:06.388Z,10.20
2023-04-15T10:09:34.952Z,10.20
2023-04-15T10:12:04.277Z,10.30
2023-04-15T10:14:38.730Z,10.30
2023-04-15T10:17:07.856Z,10.40
2023-04-15T10:19:38.205Z,10.40
2023-04-15T10:22:05.551Z,10.40
2023-04-15T10:24:33.309Z,10.50
2023-04-15T10:27:01.114Z,10.50
2023-04-15T10:29:28.629Z,10.60
2023-04-15T10:31:57.012Z,10.50
2023-04-15T10:34:25.782Z,10.50
2023-04-15T10:36:57.523Z,10.60
2023-04-15T10:39:34.325Z,10.70
2023-04-15T10:42:07.637Z,10.70
2023-04-15T10:44:37.876Z,10.50
2023-04-15T10:47:20.567Z,10.40
2023-04-15T10:49:50.501Z,10.20
2023-04-15T10:52:25.924Z,10.20
2023-04-15T10:55:04.692Z,10.20
2023-04-15T10:57:37.789Z,10.10
2023-04-15T11:00:18.862Z,10.00
2023-04-15T11:02:53.351Z,9.90
2023-04-15T11:05:22.319Z,9.80
2023-04-15T11:07:52.262Z,9.70
2023-04-15T11:10:31.352Z,9.80
2023-04-15T11:13:00.687Z,9.90
2023-04-15T11:15:41.181Z,10.10
2023-04-15T11:18:24.339Z,10.30
2023-04-15T11:20:54.985Z,10.40
2023-04-15T11:23:46.944Z,10.60
2023-04-15T11:26:14.264Z,10.80
2023-04-15T11:28:44.916Z,11.00
2023-04-15T11:31:18.056Z,11.20
2023-04-15T11:33:59.523Z,11.30
2023-04-15T11:36:28.238Z,11.40
2023-04-15T11:38:56.321Z,11.50
2023-04-15T11:41:26.702Z,11.60
2023-04-15T11:43:53.906Z,11.60
2023-04-15T11:46:22.899Z,11.60
2023-04-15T11:48:50.049Z,11.50
2023-04-15T11:51:17.097Z,11.40
2023-04-15T11:53:52.123Z,11.30
2023-04-15T11:56:24.004Z,11.10
2023-04-15T11:59:00.001Z,10.80
2023-04-15T12:01:39.972Z,10.80
2023-04-15T12:04:24.239Z,10.70
2023-04-15T12:06:52.357Z,10.60
2023-04-15T12:09:20.529Z,10.60
2023-04-15T12:11:49.372Z,10.50
2023-04-15T12:14:30.604Z,10.40
2023-04-15T12:17:00.600Z,10.10
2023-04-15T12:19:36.592Z,10.00
2023-04-15T12:22:10.501Z,10.00
2023-04-15T12:24:38.892Z,9.90
2023-04-15T12:27:11.457Z,9.70
2023-04-15T12:29:40.757Z,9.60
2023-04-15T12:32:15.911Z,9.40
2023-04-15T12:34:54.519Z,9.20
2023-04-15T12:37:21.976Z,9.20
2023-04-15T12:39:50.228Z,9.40
2023-04-15T12:42:17.857Z,9.50
2023-04-15T12:44:48.148Z,9.60
2023-04-15T12:47:15.455Z,9.70
2023-04-15T12:49:42.662Z,9.80
2023-04-15T12:52:09.734Z,9.80
2023-04-15T12:54:36.797Z,9.70
2023-04-15T12:57:06.846Z,9.60
2023-04-15T12:59:34.931Z,9.50
2023-04-15T13:02:03.042Z,9.50
2023-04-15T13:04:31.489Z,9.40
2023-04-15T13:06:58.978Z,9.20
2023-04-15T13:09:26.162Z,9.10
2023-04-15T13:11:54.524Z,9.10
2023-04-15T13:14:21.868Z,9.20
2023-04-15T13:16:48.919Z,9.20
2023-04-15T13:19:16.050Z,9.20
2023-04-15T13:21:43.114Z,9.10
2023-04-15T13:24:10.178Z,9.10
2023-04-15T13:26:37.976Z,9.00
2023-04-15T13:29:05.138Z,9.00
2023-04-15T13:31:32.280Z,9.00
2023-04-15T13:33:59.634Z,9.00
2023-04-15T13:36:27.514Z,9.00
2023-04-15T13:38:54.921Z,9.10
2023-04-15T13:41:22.224Z,9.10
2023-04-15T13:43:49.285Z,9.10
2023-04-15T13:46:16.789Z,9.10
2023-04-15T13:48:43.862Z,9.10
2023-04-15T13:51:10.954Z,9.10
2023-04-15T13:53:39.411Z,9.10
2023-04-15T13:56:08.479Z,9.10
2023-04-15T13:58:36.824Z,9.00
2023-04-15T14:01:05.952Z,8.90
2023-04-15T14:03:34.989Z,8.70
2023-04-15T14:06:02.555Z,8.60
2023-04-15T14:08:30.888Z,8.70
2023-04-15T14:10:57.960Z,8.70
2023-04-15T14:13:25.392Z,8.70
2023-04-15T14:15:52.497Z,8.70
2023-04-15T14:18:20.049Z,8.60
2023-04-15T14:20:47.210Z,8.60
2023-04-15T14:23:14.581Z,8.70
2023-04-15T14:25:41.768Z,8.70
2023-04-15T14:28:08.889Z,8.70
2023-04-15T14:30:36.054Z,8.60
2023-04-15T14:33:03.940Z,8.50
2023-04-15T14:35:31.509Z,8.50
2023-04-15T14:37:58.963Z,8.50
2023-04-15T14:40:26.085Z,8.60
2023-04-15T14:42:53.186Z,8.60
2023-04-15T14:45:20.237Z,8.50
2023-04-15T14:47:47.726Z,8.40
2023-04-15T14:50:21.154Z,8.30
2023-04-15T14:52:49.471Z,8.10
2023-04-15T14:55:16.630Z,8.00
2023-04-15T14:57:43.674Z,7.80
2023-04-15T15:00:13.740Z,7.80
2023-04-15T15:02:43.706Z,7.60
2023-04-15T15:05:12.212Z,7.50
2023-04-15T15:07:41.150Z,7.30
2023-04-15T15:10:08.589Z,7.30
2023-04-15T15:12:35.931Z,7.30
2023-04-15T15:15:12.301Z,7.40
2023-04-15T15:17:47.013Z,7.40
2023-04-15T15:20:14.124Z,7.40
2023-04-15T15:22:41.103Z,7.50
2023-04-15T15:25:08.233Z,7.50
2023-04-15T15:27:37.699Z,7.50
2023-04-15T15:30:07.014Z,7.40
2023-04-15T15:32:34.181Z,7.30
2023-04-15T15:35:01.370Z,7.30
2023-04-15T15:37:30.294Z,7.20
2023-04-15T15:39:57.495Z,7.20
2023-04-15T15:42:25.110Z,7.10
2023-04-15T15:44:53.001Z,7.10
2023-04-15T15:47:21.724Z,6.90
2023-04-15T15:49:48.839Z,6.80
2023-04-15T15:52:16.067Z,6.80
2023-04-15T15:54:43.202Z,6.80
2023-04-15T15:57:10.775Z,6.70
2023-04-15T15:59:43.683Z,6.70
2023-04-15T16:02:12.250Z,6.80
2023-04-15T16:04:39.915Z,6.90
2023-04-15T16:07:07.090Z,6.90
2023-04-15T16:09:34.650Z,7.00
2023-04-15T16:12:02.276Z,7.10
2023-04-15T16:14:34.535Z,7.10
2023-04-15T16:17:01.631Z,7.10
2023-04-15T16:19:28.749Z,7.10
2023-04-15T16:21:55.877Z,7.00
2023-04-15T16:24:23.006Z,6.90
2023-04-15T16:26:50.052Z,6.80
2023-04-15T16:29:17.093Z,6.80
2023-04-15T16:31:44.209Z,6.70
2023-04-15T16:34:11.644Z,6.70
2023-04-15T16:36:40.625Z,6.60
2023-04-15T16:39:07.910Z,6.60
2023-04-15T16:41:35.338Z,6.70
2023-04-15T16:44:03.487Z,6.80
2023-04-15T16:46:31.131Z,6.80
2023-04-15T16:48:58.334Z,6.90
2023-04-15T16:51:30.541Z,7.00
2023-04-15T16:53:57.707Z,7.10
2023-04-15T16:56:24.848Z,7.10
2023-04-15T16:58:51.888Z,7.10
2023-04-15T17:01:23.169Z,7.10
2023-04-15T17:03:50.470Z,7.00
2023-04-15T17:06:17.944Z,7.00
2023-04-15T17:08:45.038Z,7.00
2023-04-15T17:11:12.525Z,6.90
2023-04-15T17:13:39.546Z,6.90
2023-04-15T17:16:07.962Z,7.00
2023-04-15T17:18:34.998Z,7.10
2023-04-15T17:21:02.226Z,7.10
2023-04-15T17:23:29.681Z,7.10
2023-04-15T17:25:56.695Z,7.00
2023-04-15T17:28:23.738Z,6.90
2023-04-15T17:30:50.828Z,7.00
2023-04-15T17:33:55.952Z,7.00
2023-04-15T17:36:05.383Z,6.90
2023-04-15T17:38:32.368Z,6.80
2023-04-15T17:40:59.426Z,6.80
2023-04-15T17:43:26.466Z,6.80
2023-04-15T17:45:54.689Z,6.80
2023-04-15T17:48:21.902Z,6.70
2023-04-15T17:50:50.443Z,6.70
2023-04-15T17:53:19.078Z,6.70
2023-04-15T17:55:46.577Z,6.70
2023-04-15T17:58:13.620Z,6.60
2023-04-15T18:00:40.859Z,6.50
2023-04-15T18:03:08.196Z,6.50
2023-04-15T18:05:35.456Z,6.50
2023-04-15T18:08:02.515Z,6.50
2023-04-15T18:10:35.553Z,6.40
2023-04-15T18:13:03.527Z,6.50
2023-04-15T18:15:31.381Z,6.50
2023-04-15T18:18:05.637Z,6.50
2023-04-15T18:20:33.609Z,6.40
2023-04-15T18:23:00.700Z,6.50
2023-04-15T18:25:27.676Z,6.40
2023-04-15T18:27:55.225Z,6.30
2023-04-15T18:30:22.546Z,6.40
2023-04-15T18:32:49.595Z,6.40
2023-04-15T18:35:17.287Z,6.40
2023-04-15T18:37:44.290Z,6.40
2023-04-15T18:40:11.773Z,6.40
2023-04-15T18:42:38.804Z,6.40
2023-04-15T18:45:06.379Z,6.30
2023-04-15T18:47:33.436Z,6.40
2023-04-15T18:50:00.778Z,6.50
2023-04-15T18:52:27.735Z,6.40
2023-04-15T18:54:54.788Z,6.40
2023-04-15T18:57:28.652Z,6.40
2023-04-15T19:00:00.166Z,6.30
2023-04-15T19:02:27.250Z,6.30
2023-04-15T19:04:54.261Z,6.30
2023-04-15T19:07:22.255Z,6.20
2023-04-15T19:09:49.250Z,6.20
2023-04-15T19:12:16.290Z,6.20
2023-04-15T19:14:43.342Z,6.20
2023-04-15T19:17:10.344Z,6.20
2023-04-15T19:19:37.402Z,6.30
2023-04-15T19:22:04.716Z,6.40
2023-04-15T19:24:33.103Z,6.40
2023-04-15T19:27:01.581Z,6.40
2023-04-15T19:29:28.980Z,6.50
2023-04-15T19:31:56.169Z,6.50
2023-04-15T19:34:23.256Z,6.50
2023-04-15T19:36:50.562Z,6.50
2023-04-15T19:39:22.758Z,6.50
2023-04-15T19:41:49.967Z,6.40
2023-04-15T19:44:17.035Z,6.40
2023-04-15T19:46:45.016Z,6.40
2023-04-15T19:49:12.394Z,6.40
2023-04-15T19:51:39.320Z,6.30
2023-04-15T19:54:06.633Z,6.30
2023-04-15T19:56:34.560Z,6.30
2023-04-15T19:59:02.316Z,6.30
2023-04-15T20:01:29.317Z,6.30
2023-04-15T20:03:56.483Z,6.40
2023-04-15T20:06:23.949Z,6.50
2023-04-15T20:08:51.932Z,6.50
2023-04-15T20:11:19.128Z,6.50
2023-04-15T20:13:46.264Z,6.60
2023-04-15T20:16:13.451Z,6.60
2023-04-15T20:18:40.401Z,6.60
2023-04-15T20:21:07.416Z,6.50
2023-04-15T20:23:36.048Z,6.50
2023-04-15T20:26:03.006Z,6.50
2023-04-15T20:28:30.335Z,6.50
2023-04-15T20:30:57.378Z,6.50
2023-04-15T20:33:25.833Z,6.60
2023-04-15T20:35:53.596Z,6.50
2023-04-15T20:38:21.945Z,6.60
2023-04-15T20:40:48.944Z,6.60
2023-04-15T20:43:15.997Z,6.60
2023-04-15T20:45:42.988Z,6.60
2023-04-15T20:48:10.989Z,6.50
2023-04-15T20:50:38.963Z,6.60
2023-04-15T20:53:06.206Z,6.50
2023-04-15T20:55:33.178Z,6.50
2023-04-15T20:58:00.221Z,6.50
2023-04-15T21:00:27.441Z,6.50
2023-04-15T21:02:54.708Z,6.60
2023-04-15T21:05:21.885Z,6.60
2023-04-15T21:07:48.959Z,6.60
2023-04-15T21:10:16.070Z,6.60
2023-04-15T21:12:43.032Z,6.70
2023-04-15T21:15:10.590Z,6.70
2023-04-15T21:17:37.759Z,6.70
2023-04-15T21:20:10.902Z,6.70
2023-04-15T21:22:37.888Z,6.70
2023-04-15T21:25:05.265Z,6.60
2023-04-15T21:27:32.311Z,6.60
2023-04-15T21:29:59.447Z,6.50
2023-04-15T21:32:27.286Z,6.50
2023-04-15T21:34:54.607Z,6.60
2023-04-15T21:37:21.621Z,6.60
2023-04-15T21:39:48.653Z,6.60
2023-04-15T21:42:15.728Z,6.60
2023-04-15T21:44:42.797Z,6.60
2023-04-15T21:47:09.883Z,6.60
2023-04-15T21:49:37.254Z,6.60
2023-04-15T21:52:04.730Z,6.70
2023-04-15T21:54:33.226Z,6.70
2023-04-15T21:57:02.019Z,6.60
2023-04-15T21:59:29.192Z,6.70
2023-04-15T22:01:56.422Z,6.80
2023-04-15T22:04:24.891Z,6.80
2023-04-15T22:06:52.389Z,6.80
2023-04-15T22:09:19.614Z,6.80
2023-04-15T22:11:47.372Z,6.80
2023-04-15T22:14:15.008Z,6.80
2023-04-15T22:16:42.060Z,6.80
2023-04-15T22:19:09.802Z,6.90
2023-04-15T22:21:36.879Z,6.90
2023-04-15T22:24:33.507Z,7.00
2023-04-15T22:26:51.036Z,7.10
2023-04-15T22:29:17.982Z,7.10
2023-04-15T22:31:45.024Z,7.10
2023-04-15T22:34:14.752Z,7.00
2023-04-15T22:36:41.807Z,6.90
2023-04-15T22:39:08.821Z,6.80
2023-04-15T22:41:35.896Z,6.80
2023-04-15T22:44:02.950Z,6.80
2023-04-15T22:46:30.638Z,6.70
2023-04-15T22:48:57.972Z,6.70
2023-04-15T22:51:28.053Z,6.80
2023-04-15T22:53:55.793Z,6.80
2023-04-15T22:56:23.431Z,6.80
2023-04-15T22:58:50.748Z,6.80
2023-04-15T23:01:18.478Z,6.80
2023-04-15T23:03:56.475Z,6.80
2023-04-15T23:06:31.525Z,6.80
2023-04-15T23:08:58.498Z,6.80
2023-04-15T23:11:25.557Z,6.70
2023-04-15T23:13:53.205Z,6.70
2023-04-15T23:16:20.203Z,6.70
2023-04-15T23:18:47.194Z,6.70
2023-04-15T23:21:14.243Z,6.70
2023-04-15T23:23:41.183Z,6.70
2023-04-15T23:26:08.168Z,6.80
2023-04-15T23:28:35.354Z,6.80
2023-04-15T23:31:03.942Z,6.80
2023-04-15T23:33:32.632Z,6.80
2023-04-15T23:35:59.596Z,6.80
2023-04-15T23:38:26.534Z,6.80
2023-04-15T23:40:53.503Z,6.90
2023-04-15T23:43:20.454Z,6.90
2023-04-15T23:45:47.534Z,6.90
2023-04-15T23:48:14.582Z,7.00
2023-04-15T23:50:41.566Z,6.90
2023-04-15T23:53:08.514Z,7.00
2023-04-15T23:55:35.582Z,7.00
2023-04-15T23:58:02.540Z,7.00
